NOZ200 ENGM-ENVA
Flight info
| Callsign | NOZ200 |
|---|---|
| Flight time | 0h 40m |
| Altitude | 30000 |
| Route | RIBBE DCT GIGNI DCT VEVOD |
| Aircraft | B738/M-SDE2E3FGHIRWXY/LB1 |
Departure
| Time | 2026-05-06 20:05 |
|---|---|
| Airport | Oslo-Gardermoen International Airport (ENGM) |
Arrival
| Time | 2026-05-06 20:46 |
|---|---|
| Airport | Trondheim Airport, Værnes (ENVA) |
| Time | Latitude | Longitude | Altitude | Speed | Heading |
|---|---|---|---|---|---|
| 2026-05-06 19:34 | 60.19575 | 11.09352 | 687 ft | 0 kts | 195° |
| 2026-05-06 19:51 | 60.19587 | 11.09359 | 685 ft | 3 kts | 195° |
| 2026-05-06 19:51 | 60.19605 | 11.09369 | 686 ft | 3 kts | 195° |
| 2026-05-06 19:51 | 60.19619 | 11.09376 | 686 ft | 0 kts | 195° |
| 2026-05-06 19:54 | 60.19612 | 11.09381 | 689 ft | 2 kts | 150° |
| 2026-05-06 19:55 | 60.19616 | 11.09418 | 689 ft | 4 kts | 51° |
| 2026-05-06 19:55 | 60.19657 | 11.09482 | 687 ft | 9 kts | 45° |
| 2026-05-06 19:55 | 60.19693 | 11.09597 | 688 ft | 11 kts | 34° |
| 2026-05-06 19:55 | 60.19779 | 11.09655 | 689 ft | 16 kts | 17° |
| 2026-05-06 19:56 | 60.19899 | 11.09724 | 689 ft | 18 kts | 15° |
| 2026-05-06 19:56 | 60.19984 | 11.09791 | 683 ft | 12 kts | 48° |
| 2026-05-06 19:56 | 60.19981 | 11.09945 | 682 ft | 11 kts | 106° |
| 2026-05-06 19:56 | 60.19956 | 11.10117 | 689 ft | 15 kts | 106° |
| 2026-05-06 19:57 | 60.19933 | 11.10278 | 686 ft | 7 kts | 105° |
| 2026-05-06 19:57 | 60.19924 | 11.10340 | 683 ft | 5 kts | 105° |
| 2026-05-06 19:57 | 60.19909 | 11.10446 | 684 ft | 12 kts | 106° |
| 2026-05-06 19:57 | 60.19882 | 11.10640 | 687 ft | 16 kts | 105° |
| 2026-05-06 19:58 | 60.19854 | 11.10839 | 686 ft | 14 kts | 106° |
| 2026-05-06 19:58 | 60.19827 | 11.11027 | 687 ft | 14 kts | 105° |
| 2026-05-06 19:58 | 60.19800 | 11.11213 | 689 ft | 14 kts | 105° |
| 2026-05-06 19:58 | 60.19769 | 11.11381 | 687 ft | 10 kts | 118° |
| 2026-05-06 19:59 | 60.19709 | 11.11435 | 688 ft | 12 kts | 191° |
| 2026-05-06 19:59 | 60.19605 | 11.11377 | 684 ft | 17 kts | 196° |
| 2026-05-06 19:59 | 60.19487 | 11.11311 | 689 ft | 17 kts | 196° |
| 2026-05-06 19:59 | 60.19372 | 11.11245 | 686 ft | 17 kts | 196° |
| 2026-05-06 20:00 | 60.19242 | 11.11171 | 689 ft | 22 kts | 195° |
| 2026-05-06 20:00 | 60.19097 | 11.11088 | 685 ft | 21 kts | 196° |
| 2026-05-06 20:00 | 60.18956 | 11.11008 | 686 ft | 21 kts | 196° |
| 2026-05-06 20:00 | 60.18820 | 11.10930 | 684 ft | 20 kts | 196° |
| 2026-05-06 20:01 | 60.18689 | 11.10856 | 689 ft | 19 kts | 195° |
| 2026-05-06 20:01 | 60.18561 | 11.10783 | 689 ft | 19 kts | 195° |
| 2026-05-06 20:01 | 60.18435 | 11.10711 | 687 ft | 19 kts | 195° |
| 2026-05-06 20:01 | 60.18298 | 11.10634 | 689 ft | 21 kts | 195° |
| 2026-05-06 20:02 | 60.18157 | 11.10553 | 689 ft | 21 kts | 195° |
| 2026-05-06 20:02 | 60.18021 | 11.10475 | 689 ft | 20 kts | 196° |
| 2026-05-06 20:02 | 60.17889 | 11.10400 | 687 ft | 19 kts | 196° |
| 2026-05-06 20:02 | 60.17771 | 11.10345 | 689 ft | 12 kts | 171° |
| 2026-05-06 20:03 | 60.17730 | 11.10477 | 683 ft | 12 kts | 106° |
| 2026-05-06 20:03 | 60.17712 | 11.10603 | 689 ft | 5 kts | 105° |
| 2026-05-06 20:03 | 60.17709 | 11.10626 | 689 ft | 0 kts | 105° |
| 2026-05-06 20:04 | 60.17708 | 11.10635 | 689 ft | 4 kts | 105° |
| 2026-05-06 20:04 | 60.17699 | 11.10776 | 687 ft | 14 kts | 77° |
| 2026-05-06 20:05 | 60.17768 | 11.10888 | 689 ft | 13 kts | 16° |
| 2026-05-06 20:05 | 60.18025 | 11.11036 | 688 ft | 79 kts | 15° |
| 2026-05-06 20:05 | 60.18820 | 11.11478 | 691 ft | 156 kts | 13° |
| 2026-05-06 20:05 | 60.19983 | 11.12059 | 1302 ft | 177 kts | 11° |
| 2026-05-06 20:06 | 60.21231 | 11.12568 | 2304 ft | 189 kts | 12° |
| 2026-05-06 20:06 | 60.22448 | 11.13955 | 2771 ft | 220 kts | 50° |
| 2026-05-06 20:06 | 60.23016 | 11.16891 | 3092 ft | 238 kts | 82° |
| 2026-05-06 20:06 | 60.23042 | 11.20273 | 3656 ft | 245 kts | 92° |
| 2026-05-06 20:07 | 60.22941 | 11.23696 | 4319 ft | 246 kts | 94° |
| 2026-05-06 20:07 | 60.22836 | 11.27149 | 4965 ft | 248 kts | 93° |
| 2026-05-06 20:07 | 60.22739 | 11.30630 | 5587 ft | 251 kts | 93° |
| 2026-05-06 20:07 | 60.22893 | 11.34181 | 6026 ft | 265 kts | 75° |
| 2026-05-06 20:08 | 60.23246 | 11.36574 | 6367 ft | 273 kts | 73° |
| 2026-05-06 20:08 | 60.23768 | 11.40307 | 7114 ft | 279 kts | 75° |
| 2026-05-06 20:08 | 60.24264 | 11.44092 | 7983 ft | 282 kts | 76° |
| 2026-05-06 20:08 | 60.24972 | 11.49208 | 8995 ft | 291 kts | 67° |
| 2026-05-06 20:09 | 60.26181 | 11.52457 | 9834 ft | 294 kts | 36° |
| 2026-05-06 20:09 | 60.28025 | 11.54274 | 10391 ft | 303 kts | 12° |
| 2026-05-06 20:09 | 60.30172 | 11.55164 | 10601 ft | 327 kts | 7° |
| 2026-05-06 20:09 | 60.31690 | 11.55665 | 10735 ft | 342 kts | 6° |
| 2026-05-06 20:10 | 60.34101 | 11.56430 | 11138 ft | 356 kts | 6° |
| 2026-05-06 20:10 | 60.36573 | 11.57237 | 11784 ft | 363 kts | 6° |
| 2026-05-06 20:10 | 60.39085 | 11.58093 | 12484 ft | 369 kts | 6° |
| 2026-05-06 20:10 | 60.41634 | 11.58987 | 13197 ft | 374 kts | 5° |
| 2026-05-06 20:11 | 60.44217 | 11.59909 | 13845 ft | 380 kts | 5° |
| 2026-05-06 20:11 | 60.46831 | 11.60850 | 14475 ft | 383 kts | 5° |
| 2026-05-06 20:11 | 60.49466 | 11.61801 | 15153 ft | 386 kts | 4° |
| 2026-05-06 20:11 | 60.52120 | 11.62764 | 15831 ft | 389 kts | 4° |
| 2026-05-06 20:12 | 60.54763 | 11.63759 | 16485 ft | 395 kts | 4° |
| 2026-05-06 20:12 | 60.57491 | 11.64806 | 16993 ft | 402 kts | 4° |
| 2026-05-06 20:12 | 60.60252 | 11.65875 | 17667 ft | 405 kts | 3° |
| 2026-05-06 20:12 | 60.63032 | 11.66955 | 18302 ft | 409 kts | 3° |
| 2026-05-06 20:13 | 60.65836 | 11.68044 | 18857 ft | 411 kts | 2° |
| 2026-05-06 20:13 | 60.68660 | 11.69139 | 19409 ft | 415 kts | 2° |
| 2026-05-06 20:13 | 60.71510 | 11.70244 | 19936 ft | 419 kts | 2° |
| 2026-05-06 20:13 | 60.74383 | 11.71361 | 20459 ft | 422 kts | 2° |
| 2026-05-06 20:14 | 60.77282 | 11.72488 | 20963 ft | 426 kts | 2° |
| 2026-05-06 20:14 | 60.80204 | 11.73626 | 21471 ft | 429 kts | 2° |
| 2026-05-06 20:14 | 60.83148 | 11.74726 | 22060 ft | 430 kts | 358° |
| 2026-05-06 20:14 | 60.86113 | 11.75227 | 22477 ft | 427 kts | 352° |
| 2026-05-06 20:15 | 60.89083 | 11.75315 | 22990 ft | 427 kts | 349° |
| 2026-05-06 20:15 | 60.92063 | 11.75294 | 23548 ft | 429 kts | 349° |
| 2026-05-06 20:15 | 60.95027 | 11.75289 | 23911 ft | 434 kts | 349° |
| 2026-05-06 20:15 | 60.98057 | 11.75340 | 24305 ft | 437 kts | 350° |
| 2026-05-06 20:16 | 61.01109 | 11.75445 | 24704 ft | 440 kts | 351° |
| 2026-05-06 20:16 | 61.04182 | 11.75585 | 25094 ft | 443 kts | 351° |
| 2026-05-06 20:16 | 61.07270 | 11.75737 | 25455 ft | 446 kts | 351° |
| 2026-05-06 20:16 | 61.10382 | 11.75894 | 25812 ft | 449 kts | 352° |
| 2026-05-06 20:17 | 61.13513 | 11.76052 | 26158 ft | 451 kts | 352° |
| 2026-05-06 20:17 | 61.16663 | 11.76207 | 26510 ft | 454 kts | 352° |
| 2026-05-06 20:17 | 61.19805 | 11.76099 | 26843 ft | 445 kts | 341° |
| 2026-05-06 20:17 | 61.22689 | 11.74293 | 27160 ft | 425 kts | 325° |
| 2026-05-06 20:18 | 61.25138 | 11.71097 | 27520 ft | 409 kts | 311° |
| 2026-05-06 20:18 | 61.27234 | 11.67255 | 27952 ft | 406 kts | 309° |
| 2026-05-06 20:18 | 61.29316 | 11.63301 | 28400 ft | 406 kts | 309° |
| 2026-05-06 20:18 | 61.31415 | 11.59374 | 28783 ft | 407 kts | 310° |
| 2026-05-06 20:19 | 61.33542 | 11.55458 | 29201 ft | 408 kts | 310° |
| 2026-05-06 20:19 | 61.35735 | 11.51682 | 29606 ft | 416 kts | 319° |
| 2026-05-06 20:19 | 61.38415 | 11.49055 | 29967 ft | 435 kts | 334° |
| 2026-05-06 20:19 | 61.41480 | 11.48004 | 29949 ft | 458 kts | 350° |
| 2026-05-06 20:20 | 61.47854 | 11.48077 | 29958 ft | 454 kts | 353° |
| 2026-05-06 20:20 | 61.54057 | 11.48288 | 29941 ft | 442 kts | 353° |
| 2026-05-06 20:21 | 61.60058 | 11.48399 | 29933 ft | 418 kts | 352° |
| 2026-05-06 20:21 | 61.62919 | 11.48426 | 29940 ft | 404 kts | 351° |
| 2026-05-06 20:21 | 61.65685 | 11.48442 | 29910 ft | 392 kts | 351° |
| 2026-05-06 20:22 | 61.68418 | 11.48440 | 29150 ft | 397 kts | 351° |
| 2026-05-06 20:22 | 61.71205 | 11.48422 | 28361 ft | 405 kts | 351° |
| 2026-05-06 20:22 | 61.74055 | 11.48405 | 27479 ft | 414 kts | 351° |
| 2026-05-06 20:22 | 61.76944 | 11.48402 | 26880 ft | 416 kts | 353° |
| 2026-05-06 20:23 | 61.79832 | 11.48417 | 26433 ft | 413 kts | 353° |
| 2026-05-06 20:23 | 61.82652 | 11.48437 | 26077 ft | 409 kts | 353° |
| 2026-05-06 20:23 | 61.85472 | 11.48458 | 25791 ft | 402 kts | 353° |
| 2026-05-06 20:23 | 61.88249 | 11.48472 | 25419 ft | 397 kts | 353° |
| 2026-05-06 20:24 | 61.91024 | 11.48475 | 24786 ft | 401 kts | 354° |
| 2026-05-06 20:24 | 61.93820 | 11.48479 | 24261 ft | 401 kts | 354° |
| 2026-05-06 20:24 | 61.96599 | 11.48489 | 23877 ft | 397 kts | 354° |
| 2026-05-06 20:24 | 61.99350 | 11.48500 | 23492 ft | 393 kts | 353° |
| 2026-05-06 20:25 | 62.02051 | 11.48209 | 22998 ft | 386 kts | 349° |
| 2026-05-06 20:25 | 62.04704 | 11.47637 | 22508 ft | 382 kts | 348° |
| 2026-05-06 20:25 | 62.07328 | 11.46983 | 22094 ft | 378 kts | 349° |
| 2026-05-06 20:25 | 62.09890 | 11.46333 | 21660 ft | 375 kts | 349° |
| 2026-05-06 20:26 | 62.12474 | 11.45686 | 21204 ft | 372 kts | 350° |
| 2026-05-06 20:26 | 62.15037 | 11.45057 | 20764 ft | 370 kts | 350° |
| 2026-05-06 20:26 | 62.17582 | 11.44445 | 20340 ft | 367 kts | 351° |
| 2026-05-06 20:26 | 62.20110 | 11.43845 | 19985 ft | 363 kts | 351° |
| 2026-05-06 20:27 | 62.22604 | 11.43257 | 19717 ft | 358 kts | 351° |
| 2026-05-06 20:27 | 62.25069 | 11.42678 | 19418 ft | 355 kts | 351° |
| 2026-05-06 20:27 | 62.27521 | 11.42101 | 19166 ft | 356 kts | 352° |
| 2026-05-06 20:27 | 62.29990 | 11.41518 | 18922 ft | 359 kts | 352° |
| 2026-05-06 20:28 | 62.32478 | 11.40930 | 18673 ft | 359 kts | 352° |
| 2026-05-06 20:28 | 62.34924 | 11.40353 | 18420 ft | 357 kts | 352° |
| 2026-05-06 20:28 | 62.37387 | 11.39772 | 18158 ft | 355 kts | 353° |
| 2026-05-06 20:28 | 62.39841 | 11.39193 | 17868 ft | 354 kts | 353° |
| 2026-05-06 20:29 | 62.42290 | 11.38613 | 17524 ft | 354 kts | 353° |
| 2026-05-06 20:29 | 62.44730 | 11.38035 | 17147 ft | 352 kts | 353° |
| 2026-05-06 20:29 | 62.47159 | 11.37457 | 16752 ft | 350 kts | 353° |
| 2026-05-06 20:29 | 62.49571 | 11.36883 | 16360 ft | 348 kts | 353° |
| 2026-05-06 20:30 | 62.51976 | 11.36310 | 15972 ft | 346 kts | 352° |
| 2026-05-06 20:30 | 62.56736 | 11.35172 | 15200 ft | 343 kts | 352° |
| 2026-05-06 20:30 | 62.59106 | 11.34604 | 14818 ft | 341 kts | 352° |
| 2026-05-06 20:31 | 62.61425 | 11.34048 | 14439 ft | 338 kts | 352° |
| 2026-05-06 20:31 | 62.63748 | 11.33409 | 13974 ft | 337 kts | 347° |
| 2026-05-06 20:31 | 62.65980 | 11.31870 | 13488 ft | 335 kts | 337° |
| 2026-05-06 20:31 | 62.68134 | 11.29962 | 13058 ft | 333 kts | 336° |
| 2026-05-06 20:32 | 62.70264 | 11.28022 | 12650 ft | 330 kts | 336° |
| 2026-05-06 20:32 | 62.72375 | 11.26104 | 12269 ft | 328 kts | 336° |
| 2026-05-06 20:32 | 62.74474 | 11.24213 | 11886 ft | 325 kts | 336° |
| 2026-05-06 20:32 | 62.76559 | 11.22349 | 11510 ft | 323 kts | 336° |
| 2026-05-06 20:33 | 62.78628 | 11.20508 | 11150 ft | 320 kts | 337° |
| 2026-05-06 20:33 | 62.80686 | 11.18684 | 10788 ft | 318 kts | 337° |
| 2026-05-06 20:33 | 62.82725 | 11.16879 | 10453 ft | 315 kts | 337° |
| 2026-05-06 20:33 | 62.84721 | 11.15114 | 10339 ft | 304 kts | 337° |
| 2026-05-06 20:34 | 62.86631 | 11.13424 | 10196 ft | 296 kts | 337° |
| 2026-05-06 20:34 | 62.88514 | 11.11757 | 10081 ft | 288 kts | 337° |
| 2026-05-06 20:34 | 62.90342 | 11.10136 | 9992 ft | 279 kts | 337° |
| 2026-05-06 20:34 | 62.92110 | 11.08567 | 9722 ft | 276 kts | 337° |
| 2026-05-06 20:35 | 62.93898 | 11.06976 | 9402 ft | 276 kts | 337° |
| 2026-05-06 20:35 | 62.95674 | 11.05394 | 9088 ft | 275 kts | 337° |
| 2026-05-06 20:35 | 62.97448 | 11.03813 | 8790 ft | 274 kts | 337° |
| 2026-05-06 20:35 | 62.99210 | 11.02241 | 8503 ft | 273 kts | 337° |
| 2026-05-06 20:36 | 63.00963 | 11.00674 | 8225 ft | 271 kts | 337° |
| 2026-05-06 20:36 | 63.02712 | 10.99110 | 7941 ft | 270 kts | 337° |
| 2026-05-06 20:36 | 63.04427 | 10.97573 | 7668 ft | 269 kts | 337° |
| 2026-05-06 20:36 | 63.06184 | 10.95997 | 7390 ft | 268 kts | 337° |
| 2026-05-06 20:37 | 63.07887 | 10.94468 | 7113 ft | 267 kts | 337° |
| 2026-05-06 20:37 | 63.09631 | 10.92899 | 6829 ft | 267 kts | 337° |
| 2026-05-06 20:37 | 63.11323 | 10.91376 | 6558 ft | 266 kts | 337° |
| 2026-05-06 20:37 | 63.13037 | 10.89831 | 6273 ft | 266 kts | 337° |
| 2026-05-06 20:38 | 63.14747 | 10.88286 | 5980 ft | 265 kts | 337° |
| 2026-05-06 20:38 | 63.16449 | 10.86749 | 5709 ft | 264 kts | 337° |
| 2026-05-06 20:38 | 63.18142 | 10.85216 | 5436 ft | 263 kts | 337° |
| 2026-05-06 20:38 | 63.19829 | 10.83687 | 5162 ft | 262 kts | 337° |
| 2026-05-06 20:39 | 63.21508 | 10.82163 | 4897 ft | 259 kts | 337° |
| 2026-05-06 20:39 | 63.23152 | 10.80670 | 4652 ft | 251 kts | 337° |
| 2026-05-06 20:39 | 63.24740 | 10.79226 | 4368 ft | 244 kts | 337° |
| 2026-05-06 20:39 | 63.26274 | 10.77831 | 4118 ft | 239 kts | 337° |
| 2026-05-06 20:40 | 63.27809 | 10.76431 | 3870 ft | 239 kts | 337° |
| 2026-05-06 20:40 | 63.29336 | 10.75038 | 3640 ft | 236 kts | 337° |
| 2026-05-06 20:40 | 63.30830 | 10.73672 | 3524 ft | 230 kts | 337° |
| 2026-05-06 20:40 | 63.32314 | 10.72448 | 3409 ft | 224 kts | 344° |
| 2026-05-06 20:41 | 63.33788 | 10.71619 | 3339 ft | 214 kts | 346° |
| 2026-05-06 20:41 | 63.35232 | 10.70840 | 3259 ft | 214 kts | 344° |
| 2026-05-06 20:41 | 63.36657 | 10.70048 | 3157 ft | 206 kts | 344° |
| 2026-05-06 20:41 | 63.38030 | 10.69272 | 2931 ft | 200 kts | 343° |
| 2026-05-06 20:42 | 63.39349 | 10.68520 | 2740 ft | 193 kts | 343° |
| 2026-05-06 20:42 | 63.40587 | 10.67812 | 2518 ft | 179 kts | 343° |
| 2026-05-06 20:42 | 63.41771 | 10.67209 | 2319 ft | 172 kts | 350° |
| 2026-05-06 20:42 | 63.42925 | 10.67324 | 2165 ft | 164 kts | 12° |
| 2026-05-06 20:43 | 63.43999 | 10.68342 | 1953 ft | 170 kts | 31° |
| 2026-05-06 20:43 | 63.44882 | 10.70021 | 1720 ft | 164 kts | 47° |
| 2026-05-06 20:43 | 63.45491 | 10.72098 | 1501 ft | 157 kts | 67° |
| 2026-05-06 20:43 | 63.45763 | 10.74411 | 1292 ft | 153 kts | 84° |
| 2026-05-06 20:44 | 63.45795 | 10.76763 | 1092 ft | 149 kts | 92° |
| 2026-05-06 20:44 | 63.45797 | 10.79048 | 851 ft | 144 kts | 92° |
| 2026-05-06 20:44 | 63.45795 | 10.81277 | 634 ft | 142 kts | 93° |
| 2026-05-06 20:44 | 63.45781 | 10.83439 | 479 ft | 139 kts | 93° |
| 2026-05-06 20:45 | 63.45767 | 10.85624 | 343 ft | 142 kts | 92° |
| 2026-05-06 20:45 | 63.45767 | 10.87870 | 182 ft | 144 kts | 91° |
| 2026-05-06 20:45 | 63.45763 | 10.90017 | 31 ft | 127 kts | 91° |
| 2026-05-06 20:45 | 63.45759 | 10.91514 | 36 ft | 66 kts | 90° |
| 2026-05-06 20:46 | 63.45759 | 10.92084 | 39 ft | 18 kts | 90° |
| 2026-05-06 20:46 | 63.45758 | 10.92344 | 40 ft | 13 kts | 94° |
| 2026-05-06 20:46 | 63.45706 | 10.92422 | 41 ft | 9 kts | 179° |
| 2026-05-06 20:46 | 63.45643 | 10.92424 | 41 ft | 9 kts | 179° |
| 2026-05-06 20:47 | 63.45598 | 10.92379 | 40 ft | 7 kts | 248° |
| 2026-05-06 20:47 | 63.45594 | 10.92253 | 40 ft | 10 kts | 269° |
| 2026-05-06 20:47 | 63.45595 | 10.92095 | 40 ft | 10 kts | 271° |
| 2026-05-06 20:47 | 63.45596 | 10.91929 | 39 ft | 11 kts | 268° |
| 2026-05-06 20:48 | 63.45596 | 10.91758 | 38 ft | 11 kts | 270° |
| 2026-05-06 20:48 | 63.45594 | 10.91616 | 38 ft | 6 kts | 258° |
| 2026-05-06 20:48 | 63.45560 | 10.91584 | 38 ft | 6 kts | 182° |
| 2026-05-06 20:48 | 63.45520 | 10.91582 | 38 ft | 6 kts | 180° |
| 2026-05-06 20:49 | 63.45500 | 10.91583 | 36 ft | 0 kts | 179° |